sensor_id;sensor_type;location;lat;lon;timestamp;temperature;humidity
48515;DHT22;34309;47.260;2.796;2023-04-06T00:00:29;20.70;20.40
48515;DHT22;34309;47.260;2.796;2023-04-06T00:03:05;20.70;20.40
48515;DHT22;34309;47.260;2.796;2023-04-06T00:05:39;20.70;20.40
48515;DHT22;34309;47.260;2.796;2023-04-06T00:08:13;20.70;20.50
48515;DHT22;34309;47.260;2.796;2023-04-06T00:10:47;20.70;20.50
48515;DHT22;34309;47.260;2.796;2023-04-06T00:13:21;20.70;20.50
48515;DHT22;34309;47.260;2.796;2023-04-06T00:15:55;20.80;20.50
48515;DHT22;34309;47.260;2.796;2023-04-06T00:18:32;20.80;20.40
48515;DHT22;34309;47.260;2.796;2023-04-06T00:21:11;20.80;20.40
48515;DHT22;34309;47.260;2.796;2023-04-06T00:23:46;20.90;20.40
48515;DHT22;34309;47.260;2.796;2023-04-06T00:26:15;20.90;20.30
48515;DHT22;34309;47.260;2.796;2023-04-06T00:28:48;20.90;20.30
48515;DHT22;34309;47.260;2.796;2023-04-06T00:31:24;21.00;20.40
48515;DHT22;34309;47.260;2.796;2023-04-06T00:33:59;21.00;20.40
48515;DHT22;34309;47.260;2.796;2023-04-06T00:36:28;21.00;20.30
48515;DHT22;34309;47.260;2.796;2023-04-06T00:39:02;21.10;20.40
48515;DHT22;34309;47.260;2.796;2023-04-06T00:41:36;21.10;20.30
48515;DHT22;34309;47.260;2.796;2023-04-06T00:44:10;21.10;20.30
48515;DHT22;34309;47.260;2.796;2023-04-06T00:46:44;21.10;20.20
48515;DHT22;34309;47.260;2.796;2023-04-06T00:49:20;21.10;20.40
48515;DHT22;34309;47.260;2.796;2023-04-06T00:51:57;21.10;20.20
48515;DHT22;34309;47.260;2.796;2023-04-06T00:54:31;21.10;20.20
48515;DHT22;34309;47.260;2.796;2023-04-06T00:57:04;21.20;20.30
48515;DHT22;34309;47.260;2.796;2023-04-06T00:59:39;21.20;20.20
48515;DHT22;34309;47.260;2.796;2023-04-06T01:02:13;21.10;20.40
48515;DHT22;34309;47.260;2.796;2023-04-06T01:04:48;21.10;20.20
48515;DHT22;34309;47.260;2.796;2023-04-06T01:07:22;21.20;20.20
48515;DHT22;34309;47.260;2.796;2023-04-06T01:09:56;21.10;20.10
48515;DHT22;34309;47.260;2.796;2023-04-06T01:12:30;21.20;20.20
48515;DHT22;34309;47.260;2.796;2023-04-06T01:15:05;21.10;20.10
48515;DHT22;34309;47.260;2.796;2023-04-06T01:17:39;21.10;20.20
48515;DHT22;34309;47.260;2.796;2023-04-06T01:20:15;21.20;20.20
48515;DHT22;34309;47.260;2.796;2023-04-06T01:22:51;21.10;20.10
48515;DHT22;34309;47.260;2.796;2023-04-06T01:25:25;21.10;20.20
48515;DHT22;34309;47.260;2.796;2023-04-06T01:27:59;21.10;20.10
48515;DHT22;34309;47.260;2.796;2023-04-06T01:30:33;21.10;20.10
48515;DHT22;34309;47.260;2.796;2023-04-06T01:33:07;21.10;20.20
48515;DHT22;34309;47.260;2.796;2023-04-06T01:35:41;21.10;20.20
48515;DHT22;34309;47.260;2.796;2023-04-06T01:38:16;21.10;20.10
48515;DHT22;34309;47.260;2.796;2023-04-06T01:40:50;21.10;20.20
48515;DHT22;34309;47.260;2.796;2023-04-06T01:43:24;21.00;20.20
48515;DHT22;34309;47.260;2.796;2023-04-06T01:45:58;21.00;20.20
48515;DHT22;34309;47.260;2.796;2023-04-06T01:48:32;21.00;20.20
48515;DHT22;34309;47.260;2.796;2023-04-06T01:51:06;21.00;20.20
48515;DHT22;34309;47.260;2.796;2023-04-06T01:53:42;21.00;20.20
48515;DHT22;34309;47.260;2.796;2023-04-06T01:56:16;20.90;20.10
48515;DHT22;34309;47.260;2.796;2023-04-06T01:58:49;20.90;20.20
48515;DHT22;34309;47.260;2.796;2023-04-06T02:01:23;20.90;20.10
48515;DHT22;34309;47.260;2.796;2023-04-06T02:03:57;20.90;20.20
48515;DHT22;34309;47.260;2.796;2023-04-06T02:06:31;20.90;20.20
48515;DHT22;34309;47.260;2.796;2023-04-06T02:09:06;20.90;20.30
48515;DHT22;34309;47.260;2.796;2023-04-06T02:11:40;20.90;20.20
48515;DHT22;34309;47.260;2.796;2023-04-06T02:14:16;20.90;20.20
48515;DHT22;34309;47.260;2.796;2023-04-06T02:16:50;20.80;20.20
48515;DHT22;34309;47.260;2.796;2023-04-06T02:19:19;20.80;20.10
48515;DHT22;34309;47.260;2.796;2023-04-06T02:21:53;20.80;20.10
48515;DHT22;34309;47.260;2.796;2023-04-06T02:24:29;20.80;20.20
48515;DHT22;34309;47.260;2.796;2023-04-06T02:27:03;20.80;20.10
48515;DHT22;34309;47.260;2.796;2023-04-06T02:29:36;20.80;20.10
48515;DHT22;34309;47.260;2.796;2023-04-06T02:32:10;20.70;20.10
48515;DHT22;34309;47.260;2.796;2023-04-06T02:34:44;20.80;20.40
48515;DHT22;34309;47.260;2.796;2023-04-06T02:37:18;20.80;20.30
48515;DHT22;34309;47.260;2.796;2023-04-06T02:39:54;20.80;20.30
48515;DHT22;34309;47.260;2.796;2023-04-06T02:42:31;20.80;20.20
48515;DHT22;34309;47.260;2.796;2023-04-06T02:45:07;20.80;20.30
48515;DHT22;34309;47.260;2.796;2023-04-06T02:47:42;20.90;20.20
48515;DHT22;34309;47.260;2.796;2023-04-06T02:50:16;20.90;20.20
48515;DHT22;34309;47.260;2.796;2023-04-06T02:52:50;21.00;20.20
48515;DHT22;34309;47.260;2.796;2023-04-06T02:55:25;21.00;20.20
48515;DHT22;34309;47.260;2.796;2023-04-06T02:57:59;21.00;20.10
48515;DHT22;34309;47.260;2.796;2023-04-06T03:00:33;21.10;20.20
48515;DHT22;34309;47.260;2.796;2023-04-06T03:03:08;21.10;20.10
48515;DHT22;34309;47.260;2.796;2023-04-06T03:05:43;21.10;20.00
48515;DHT22;34309;47.260;2.796;2023-04-06T03:08:17;21.10;20.00
48515;DHT22;34309;47.260;2.796;2023-04-06T03:10:52;21.10;20.00
48515;DHT22;34309;47.260;2.796;2023-04-06T03:13:26;21.10;20.00
48515;DHT22;34309;47.260;2.796;2023-04-06T03:16:00;21.20;20.00
48515;DHT22;34309;47.260;2.796;2023-04-06T03:18:34;21.20;20.00
48515;DHT22;34309;47.260;2.796;2023-04-06T03:21:08;21.20;19.90
48515;DHT22;34309;47.260;2.796;2023-04-06T03:23:41;21.20;19.80
48515;DHT22;34309;47.260;2.796;2023-04-06T03:26:17;21.20;19.90
48515;DHT22;34309;47.260;2.796;2023-04-06T03:28:50;21.20;20.40
48515;DHT22;34309;47.260;2.796;2023-04-06T03:31:24;21.20;19.80
48515;DHT22;34309;47.260;2.796;2023-04-06T03:33:58;21.20;19.80
48515;DHT22;34309;47.260;2.796;2023-04-06T03:36:32;21.20;19.90
48515;DHT22;34309;47.260;2.796;2023-04-06T03:39:05;21.20;20.10
48515;DHT22;34309;47.260;2.796;2023-04-06T03:41:40;21.20;19.80
48515;DHT22;34309;47.260;2.796;2023-04-06T03:44:15;21.20;19.80
48515;DHT22;34309;47.260;2.796;2023-04-06T03:46:49;21.20;19.80
48515;DHT22;34309;47.260;2.796;2023-04-06T03:49:22;21.20;19.90
48515;DHT22;34309;47.260;2.796;2023-04-06T03:51:56;21.10;19.80
48515;DHT22;34309;47.260;2.796;2023-04-06T03:54:30;21.10;19.70
48515;DHT22;34309;47.260;2.796;2023-04-06T03:57:05;21.10;19.80
48515;DHT22;34309;47.260;2.796;2023-04-06T03:59:39;21.10;19.80
48515;DHT22;34309;47.260;2.796;2023-04-06T04:02:13;21.10;19.70
48515;DHT22;34309;47.260;2.796;2023-04-06T04:04:47;21.10;19.80
48515;DHT22;34309;47.260;2.796;2023-04-06T04:07:21;21.10;19.80
48515;DHT22;34309;47.260;2.796;2023-04-06T04:09:54;21.10;19.80
48515;DHT22;34309;47.260;2.796;2023-04-06T04:12:29;21.00;19.90
48515;DHT22;34309;47.260;2.796;2023-04-06T04:15:04;21.00;20.10
48515;DHT22;34309;47.260;2.796;2023-04-06T04:17:38;21.00;19.90
48515;DHT22;34309;47.260;2.796;2023-04-06T04:20:12;21.00;19.90
48515;DHT22;34309;47.260;2.796;2023-04-06T04:22:49;21.00;19.90
48515;DHT22;34309;47.260;2.796;2023-04-06T04:25:23;21.00;19.90
48515;DHT22;34309;47.260;2.796;2023-04-06T04:27:58;20.90;20.00
48515;DHT22;34309;47.260;2.796;2023-04-06T04:30:32;20.90;19.90
48515;DHT22;34309;47.260;2.796;2023-04-06T04:33:06;20.90;19.90
48515;DHT22;34309;47.260;2.796;2023-04-06T04:35:40;20.90;19.80
48515;DHT22;34309;47.260;2.796;2023-04-06T04:38:14;20.80;19.80
48515;DHT22;34309;47.260;2.796;2023-04-06T04:40:48;20.80;19.80
48515;DHT22;34309;47.260;2.796;2023-04-06T04:43:23;20.80;19.80
48515;DHT22;34309;47.260;2.796;2023-04-06T04:45:57;20.80;19.80
48515;DHT22;34309;47.260;2.796;2023-04-06T04:48:32;20.70;19.90
48515;DHT22;34309;47.260;2.796;2023-04-06T04:51:06;20.70;19.90
48515;DHT22;34309;47.260;2.796;2023-04-06T04:53:39;20.70;19.90
48515;DHT22;34309;47.260;2.796;2023-04-06T04:56:13;20.70;20.00
48515;DHT22;34309;47.260;2.796;2023-04-06T04:58:48;20.80;20.00
48515;DHT22;34309;47.260;2.796;2023-04-06T05:01:23;20.80;20.00
48515;DHT22;34309;47.260;2.796;2023-04-06T05:03:56;20.80;20.00
48515;DHT22;34309;47.260;2.796;2023-04-06T05:06:25;20.90;19.90
48515;DHT22;34309;47.260;2.796;2023-04-06T05:09:02;20.90;19.90
48515;DHT22;34309;47.260;2.796;2023-04-06T05:11:37;20.90;19.90
48515;DHT22;34309;47.260;2.796;2023-04-06T05:14:12;21.00;19.90
48515;DHT22;34309;47.260;2.796;2023-04-06T05:16:47;21.00;19.80
48515;DHT22;34309;47.260;2.796;2023-04-06T05:19:15;21.00;19.80
48515;DHT22;34309;47.260;2.796;2023-04-06T05:21:49;21.00;20.00
48515;DHT22;34309;47.260;2.796;2023-04-06T05:24:23;21.10;20.00
48515;DHT22;34309;47.260;2.796;2023-04-06T05:26:57;21.10;19.80
48515;DHT22;34309;47.260;2.796;2023-04-06T05:29:33;21.10;19.80
48515;DHT22;34309;47.260;2.796;2023-04-06T05:32:07;21.10;19.80
48515;DHT22;34309;47.260;2.796;2023-04-06T05:34:42;21.10;19.90
48515;DHT22;34309;47.260;2.796;2023-04-06T05:37:16;21.10;19.70
48515;DHT22;34309;47.260;2.796;2023-04-06T05:39:50;21.20;19.70
48515;DHT22;34309;47.260;2.796;2023-04-06T05:42:23;21.10;19.60
48515;DHT22;34309;47.260;2.796;2023-04-06T05:44:59;21.20;19.60
48515;DHT22;34309;47.260;2.796;2023-04-06T05:47:33;21.20;19.70
48515;DHT22;34309;47.260;2.796;2023-04-06T05:50:07;21.20;19.70
48515;DHT22;34309;47.260;2.796;2023-04-06T05:52:41;21.20;19.70
48515;DHT22;34309;47.260;2.796;2023-04-06T05:55:18;21.20;19.70
48515;DHT22;34309;47.260;2.796;2023-04-06T05:57:52;21.20;19.90
48515;DHT22;34309;47.260;2.796;2023-04-06T06:00:27;21.20;19.80
48515;DHT22;34309;47.260;2.796;2023-04-06T06:02:57;21.20;19.70
48515;DHT22;34309;47.260;2.796;2023-04-06T06:05:30;21.10;19.70
48515;DHT22;34309;47.260;2.796;2023-04-06T06:08:04;21.10;19.70
48515;DHT22;34309;47.260;2.796;2023-04-06T06:10:38;21.10;19.60
48515;DHT22;34309;47.260;2.796;2023-04-06T06:13:12;21.10;19.70
48515;DHT22;34309;47.260;2.796;2023-04-06T06:15:48;21.10;19.70
48515;DHT22;34309;47.260;2.796;2023-04-06T06:18:21;21.10;19.80
48515;DHT22;34309;47.260;2.796;2023-04-06T06:20:55;21.10;19.80
48515;DHT22;34309;47.260;2.796;2023-04-06T06:23:29;21.00;19.70
48515;DHT22;34309;47.260;2.796;2023-04-06T06:26:02;21.00;19.60
48515;DHT22;34309;47.260;2.796;2023-04-06T06:28:36;21.00;19.70
48515;DHT22;34309;47.260;2.796;2023-04-06T06:31:11;21.10;19.70
48515;DHT22;34309;47.260;2.796;2023-04-06T06:33:45;21.10;19.60
48515;DHT22;34309;47.260;2.796;2023-04-06T06:36:22;21.20;19.70
48515;DHT22;34309;47.260;2.796;2023-04-06T06:38:56;21.30;19.60
48515;DHT22;34309;47.260;2.796;2023-04-06T06:41:32;21.40;19.50
48515;DHT22;34309;47.260;2.796;2023-04-06T06:44:06;21.50;19.40
48515;DHT22;34309;47.260;2.796;2023-04-06T06:46:36;21.60;19.40
48515;DHT22;34309;47.260;2.796;2023-04-06T06:49:10;21.60;19.30
48515;DHT22;34309;47.260;2.796;2023-04-06T06:51:45;21.70;19.30
48515;DHT22;34309;47.260;2.796;2023-04-06T06:54:19;21.70;19.20
48515;DHT22;34309;47.260;2.796;2023-04-06T06:56:53;21.80;19.30
48515;DHT22;34309;47.260;2.796;2023-04-06T06:59:27;21.80;19.20
48515;DHT22;34309;47.260;2.796;2023-04-06T07:02:03;21.80;19.20
48515;DHT22;34309;47.260;2.796;2023-04-06T07:04:37;21.90;19.20
48515;DHT22;34309;47.260;2.796;2023-04-06T07:07:10;21.90;19.20
48515;DHT22;34309;47.260;2.796;2023-04-06T07:09:44;22.00;19.20
48515;DHT22;34309;47.260;2.796;2023-04-06T07:12:18;22.00;19.10
48515;DHT22;34309;47.260;2.796;2023-04-06T07:14:52;22.00;19.00
48515;DHT22;34309;47.260;2.796;2023-04-06T07:17:27;22.10;19.10
48515;DHT22;34309;47.260;2.796;2023-04-06T07:20:01;22.10;19.10
48515;DHT22;34309;47.260;2.796;2023-04-06T07:22:35;22.10;19.00
48515;DHT22;34309;47.260;2.796;2023-04-06T07:25:09;22.10;18.90
48515;DHT22;34309;47.260;2.796;2023-04-06T07:27:43;22.10;19.00
48515;DHT22;34309;47.260;2.796;2023-04-06T07:30:17;22.20;19.00
48515;DHT22;34309;47.260;2.796;2023-04-06T07:32:52;22.20;19.00
48515;DHT22;34309;47.260;2.796;2023-04-06T07:35:27;22.20;18.90
48515;DHT22;34309;47.260;2.796;2023-04-06T07:38:02;22.20;19.00
48515;DHT22;34309;47.260;2.796;2023-04-06T07:40:36;22.20;19.00
48515;DHT22;34309;47.260;2.796;2023-04-06T07:43:09;22.20;19.00
48515;DHT22;34309;47.260;2.796;2023-04-06T07:45:43;22.20;19.10
48515;DHT22;34309;47.260;2.796;2023-04-06T07:48:19;22.20;19.10
48515;DHT22;34309;47.260;2.796;2023-04-06T07:50:48;22.10;19.20
48515;DHT22;34309;47.260;2.796;2023-04-06T07:53:21;22.10;19.50
48515;DHT22;34309;47.260;2.796;2023-04-06T07:55:56;22.10;19.60
48515;DHT22;34309;47.260;2.796;2023-04-06T07:58:30;22.20;20.00
48515;DHT22;34309;47.260;2.796;2023-04-06T08:01:04;22.10;20.20
48515;DHT22;34309;47.260;2.796;2023-04-06T08:03:39;22.10;20.30
48515;DHT22;34309;47.260;2.796;2023-04-06T08:06:13;22.10;20.60
48515;DHT22;34309;47.260;2.796;2023-04-06T08:08:46;22.10;20.70
48515;DHT22;34309;47.260;2.796;2023-04-06T08:11:20;22.10;20.90
48515;DHT22;34309;47.260;2.796;2023-04-06T08:13:54;22.10;21.00
48515;DHT22;34309;47.260;2.796;2023-04-06T08:16:28;22.10;21.00
48515;DHT22;34309;47.260;2.796;2023-04-06T08:19:04;22.10;21.00
48515;DHT22;34309;47.260;2.796;2023-04-06T08:21:39;22.10;21.20
48515;DHT22;34309;47.260;2.796;2023-04-06T08:24:13;22.10;21.30
48515;DHT22;34309;47.260;2.796;2023-04-06T08:26:47;22.20;21.30
48515;DHT22;34309;47.260;2.796;2023-04-06T08:29:21;22.10;21.50
48515;DHT22;34309;47.260;2.796;2023-04-06T08:31:55;22.10;21.50
48515;DHT22;34309;47.260;2.796;2023-04-06T08:34:30;22.10;21.70
48515;DHT22;34309;47.260;2.796;2023-04-06T08:37:04;22.10;21.70
48515;DHT22;34309;47.260;2.796;2023-04-06T08:39:37;22.10;22.00
48515;DHT22;34309;47.260;2.796;2023-04-06T08:42:18;22.10;22.00
48515;DHT22;34309;47.260;2.796;2023-04-06T08:44:53;22.10;22.00
48515;DHT22;34309;47.260;2.796;2023-04-06T08:47:27;22.10;22.00
48515;DHT22;34309;47.260;2.796;2023-04-06T08:50:04;22.10;22.10
48515;DHT22;34309;47.260;2.796;2023-04-06T08:52:38;22.10;22.10
48515;DHT22;34309;47.260;2.796;2023-04-06T08:55:12;22.10;22.10
48515;DHT22;34309;47.260;2.796;2023-04-06T08:57:47;22.10;22.10
48515;DHT22;34309;47.260;2.796;2023-04-06T09:00:21;22.10;22.20
48515;DHT22;34309;47.260;2.796;2023-04-06T09:02:56;22.10;22.30
48515;DHT22;34309;47.260;2.796;2023-04-06T09:05:32;22.10;22.40
48515;DHT22;34309;47.260;2.796;2023-04-06T09:08:06;22.10;22.40
48515;DHT22;34309;47.260;2.796;2023-04-06T09:10:41;22.10;22.60
48515;DHT22;34309;47.260;2.796;2023-04-06T09:13:15;22.00;22.70
48515;DHT22;34309;47.260;2.796;2023-04-06T09:15:59;22.10;22.80
48515;DHT22;34309;47.260;2.796;2023-04-06T09:18:33;22.00;22.70
48515;DHT22;34309;47.260;2.796;2023-04-06T09:21:09;22.00;22.70
48515;DHT22;34309;47.260;2.796;2023-04-06T09:23:43;22.00;22.80
48515;DHT22;34309;47.260;2.796;2023-04-06T09:26:17;22.00;22.90
48515;DHT22;34309;47.260;2.796;2023-04-06T09:28:54;22.00;23.00
48515;DHT22;34309;47.260;2.796;2023-04-06T09:31:30;22.00;23.00
48515;DHT22;34309;47.260;2.796;2023-04-06T09:34:05;22.00;23.00
48515;DHT22;34309;47.260;2.796;2023-04-06T09:36:40;22.00;23.00
48515;DHT22;34309;47.260;2.796;2023-04-06T09:39:14;22.00;23.10
48515;DHT22;34309;47.260;2.796;2023-04-06T09:41:50;22.00;23.00
48515;DHT22;34309;47.260;2.796;2023-04-06T09:44:21;22.00;23.10
48515;DHT22;34309;47.260;2.796;2023-04-06T09:46:56;22.00;23.20
48515;DHT22;34309;47.260;2.796;2023-04-06T09:49:30;22.00;23.30
48515;DHT22;34309;47.260;2.796;2023-04-06T09:52:06;22.00;23.70
48515;DHT22;34309;47.260;2.796;2023-04-06T09:54:36;22.00;23.10
48515;DHT22;34309;47.260;2.796;2023-04-06T09:57:18;22.00;23.20
48515;DHT22;34309;47.260;2.796;2023-04-06T10:00:03;22.00;23.20
48515;DHT22;34309;47.260;2.796;2023-04-06T10:02:48;22.00;23.10
48515;DHT22;34309;47.260;2.796;2023-04-06T10:05:30;22.00;23.10
48515;DHT22;34309;47.260;2.796;2023-04-06T10:08:09;22.00;23.10
48515;DHT22;34309;47.260;2.796;2023-04-06T10:10:43;21.90;23.30
48515;DHT22;34309;47.260;2.796;2023-04-06T10:13:18;21.90;22.90
48515;DHT22;34309;47.260;2.796;2023-04-06T10:15:52;22.00;23.00
48515;DHT22;34309;47.260;2.796;2023-04-06T10:18:27;21.90;23.00
48515;DHT22;34309;47.260;2.796;2023-04-06T10:21:04;21.90;23.00
48515;DHT22;34309;47.260;2.796;2023-04-06T10:23:44;21.90;23.00
48515;DHT22;34309;47.260;2.796;2023-04-06T10:26:20;21.90;23.00
48515;DHT22;34309;47.260;2.796;2023-04-06T10:28:55;21.90;23.00
48515;DHT22;34309;47.260;2.796;2023-04-06T10:31:28;21.90;23.00
48515;DHT22;34309;47.260;2.796;2023-04-06T10:34:03;21.90;22.90
48515;DHT22;34309;47.260;2.796;2023-04-06T10:36:37;21.90;23.10
48515;DHT22;34309;47.260;2.796;2023-04-06T10:39:12;21.90;22.80
48515;DHT22;34309;47.260;2.796;2023-04-06T10:41:46;21.90;22.80
48515;DHT22;34309;47.260;2.796;2023-04-06T10:44:24;21.90;22.80
48515;DHT22;34309;47.260;2.796;2023-04-06T10:47:00;21.90;22.70
48515;DHT22;34309;47.260;2.796;2023-04-06T10:49:29;21.90;22.60
48515;DHT22;34309;47.260;2.796;2023-04-06T10:52:03;21.90;22.60
48515;DHT22;34309;47.260;2.796;2023-04-06T10:54:42;21.90;22.50
48515;DHT22;34309;47.260;2.796;2023-04-06T10:57:27;21.80;22.40
48515;DHT22;34309;47.260;2.796;2023-04-06T11:00:04;21.80;22.20
48515;DHT22;34309;47.260;2.796;2023-04-06T11:02:38;21.80;22.30
48515;DHT22;34309;47.260;2.796;2023-04-06T11:05:14;21.80;22.10
48515;DHT22;34309;47.260;2.796;2023-04-06T11:07:48;21.80;22.10
48515;DHT22;34309;47.260;2.796;2023-04-06T11:10:23;21.80;21.90
48515;DHT22;34309;47.260;2.796;2023-04-06T11:12:57;21.80;22.50
48515;DHT22;34309;47.260;2.796;2023-04-06T11:15:34;21.80;21.80
48515;DHT22;34309;47.260;2.796;2023-04-06T11:18:08;21.80;21.70
48515;DHT22;34309;47.260;2.796;2023-04-06T11:20:47;21.80;21.70
48515;DHT22;34309;47.260;2.796;2023-04-06T11:23:24;21.70;21.70
48515;DHT22;34309;47.260;2.796;2023-04-06T11:26:00;21.70;21.50
48515;DHT22;34309;47.260;2.796;2023-04-06T11:28:34;21.70;21.60
48515;DHT22;34309;47.260;2.796;2023-04-06T11:31:09;21.60;21.40
48515;DHT22;34309;47.260;2.796;2023-04-06T11:33:42;21.60;21.40
48515;DHT22;34309;47.260;2.796;2023-04-06T11:36:16;21.60;21.40
48515;DHT22;34309;47.260;2.796;2023-04-06T11:38:50;21.60;21.30
48515;DHT22;34309;47.260;2.796;2023-04-06T11:41:25;21.60;21.20
48515;DHT22;34309;47.260;2.796;2023-04-06T11:44:02;21.60;21.20
48515;DHT22;34309;47.260;2.796;2023-04-06T11:46:36;21.50;21.20
48515;DHT22;34309;47.260;2.796;2023-04-06T11:49:16;21.50;21.30
48515;DHT22;34309;47.260;2.796;2023-04-06T11:51:50;21.50;21.10
48515;DHT22;34309;47.260;2.796;2023-04-06T11:54:31;21.50;21.10
48515;DHT22;34309;47.260;2.796;2023-04-06T11:57:08;21.50;21.10
48515;DHT22;34309;47.260;2.796;2023-04-06T11:59:42;21.40;21.00
48515;DHT22;34309;47.260;2.796;2023-04-06T12:02:16;21.40;21.00
48515;DHT22;34309;47.260;2.796;2023-04-06T12:04:46;21.40;21.00
48515;DHT22;34309;47.260;2.796;2023-04-06T12:07:20;21.40;20.90
48515;DHT22;34309;47.260;2.796;2023-04-06T12:09:53;21.40;20.90
48515;DHT22;34309;47.260;2.796;2023-04-06T12:12:28;21.40;20.80
48515;DHT22;34309;47.260;2.796;2023-04-06T12:15:03;21.30;20.80
48515;DHT22;34309;47.260;2.796;2023-04-06T12:17:37;21.30;20.90
48515;DHT22;34309;47.260;2.796;2023-04-06T12:20:11;21.30;20.70
48515;DHT22;34309;47.260;2.796;2023-04-06T12:22:45;21.30;20.90
48515;DHT22;34309;47.260;2.796;2023-04-06T12:25:14;21.30;20.80
48515;DHT22;34309;47.260;2.796;2023-04-06T12:27:49;21.30;20.80
48515;DHT22;34309;47.260;2.796;2023-04-06T12:30:23;21.20;20.90
48515;DHT22;34309;47.260;2.796;2023-04-06T12:32:57;21.20;20.70
48515;DHT22;34309;47.260;2.796;2023-04-06T12:35:33;21.20;20.70
48515;DHT22;34309;47.260;2.796;2023-04-06T12:38:04;21.20;21.20
48515;DHT22;34309;47.260;2.796;2023-04-06T12:40:37;21.20;20.70
48515;DHT22;34309;47.260;2.796;2023-04-06T12:43:13;21.20;20.80
48515;DHT22;34309;47.260;2.796;2023-04-06T12:45:47;21.20;20.60
48515;DHT22;34309;47.260;2.796;2023-04-06T12:48:21;21.20;20.60
48515;DHT22;34309;47.260;2.796;2023-04-06T12:50:56;21.20;20.70
48515;DHT22;34309;47.260;2.796;2023-04-06T12:53:30;21.10;20.60
48515;DHT22;34309;47.260;2.796;2023-04-06T12:56:11;21.10;20.60
48515;DHT22;34309;47.260;2.796;2023-04-06T12:58:47;21.10;20.60
48515;DHT22;34309;47.260;2.796;2023-04-06T13:01:16;21.10;20.70
48515;DHT22;34309;47.260;2.796;2023-04-06T13:03:50;21.10;20.60
48515;DHT22;34309;47.260;2.796;2023-04-06T13:06:23;21.10;20.60
48515;DHT22;34309;47.260;2.796;2023-04-06T13:08:59;21.10;20.60
48515;DHT22;34309;47.260;2.796;2023-04-06T13:11:33;21.10;20.60
48515;DHT22;34309;47.260;2.796;2023-04-06T13:14:09;21.10;20.90
48515;DHT22;34309;47.260;2.796;2023-04-06T13:16:42;21.00;20.60
48515;DHT22;34309;47.260;2.796;2023-04-06T13:19:16;21.10;20.70
48515;DHT22;34309;47.260;2.796;2023-04-06T13:21:50;21.00;20.60
48515;DHT22;34309;47.260;2.796;2023-04-06T13:24:24;21.00;20.80
48515;DHT22;34309;47.260;2.796;2023-04-06T13:26:58;21.00;20.60
48515;DHT22;34309;47.260;2.796;2023-04-06T13:29:28;21.00;21.20
48515;DHT22;34309;47.260;2.796;2023-04-06T13:32:02;21.00;20.70
48515;DHT22;34309;47.260;2.796;2023-04-06T13:34:36;21.00;20.70
48515;DHT22;34309;47.260;2.796;2023-04-06T13:37:10;20.90;20.70
48515;DHT22;34309;47.260;2.796;2023-04-06T13:39:44;21.00;20.70
48515;DHT22;34309;47.260;2.796;2023-04-06T13:42:18;21.00;20.70
48515;DHT22;34309;47.260;2.796;2023-04-06T13:44:53;21.00;20.80
48515;DHT22;34309;47.260;2.796;2023-04-06T13:47:27;20.90;20.70
48515;DHT22;34309;47.260;2.796;2023-04-06T13:50:01;20.90;20.70
48515;DHT22;34309;47.260;2.796;2023-04-06T13:52:35;20.90;20.80
48515;DHT22;34309;47.260;2.796;2023-04-06T13:55:09;20.90;20.70
48515;DHT22;34309;47.260;2.796;2023-04-06T13:57:43;20.90;20.70
48515;DHT22;34309;47.260;2.796;2023-04-06T14:00:19;20.90;20.90
48515;DHT22;34309;47.260;2.796;2023-04-06T14:02:54;20.90;20.80
48515;DHT22;34309;47.260;2.796;2023-04-06T14:05:31;20.90;20.80
48515;DHT22;34309;47.260;2.796;2023-04-06T14:08:05;20.90;20.80
48515;DHT22;34309;47.260;2.796;2023-04-06T14:10:38;20.90;20.80
48515;DHT22;34309;47.260;2.796;2023-04-06T14:13:09;20.90;20.90
48515;DHT22;34309;47.260;2.796;2023-04-06T14:15:45;20.90;20.80
48515;DHT22;34309;47.260;2.796;2023-04-06T14:18:19;20.90;21.00
48515;DHT22;34309;47.260;2.796;2023-04-06T14:20:56;20.80;20.80
48515;DHT22;34309;47.260;2.796;2023-04-06T14:23:31;20.80;21.00
48515;DHT22;34309;47.260;2.796;2023-04-06T14:26:05;20.80;20.90
48515;DHT22;34309;47.260;2.796;2023-04-06T14:28:41;20.80;20.80
48515;DHT22;34309;47.260;2.796;2023-04-06T14:31:16;20.80;20.80
48515;DHT22;34309;47.260;2.796;2023-04-06T14:33:50;20.80;20.90
48515;DHT22;34309;47.260;2.796;2023-04-06T14:36:24;20.80;20.90
48515;DHT22;34309;47.260;2.796;2023-04-06T14:38:54;20.80;20.90
48515;DHT22;34309;47.260;2.796;2023-04-06T14:41:31;20.90;21.00
48515;DHT22;34309;47.260;2.796;2023-04-06T14:44:07;20.80;21.10
48515;DHT22;34309;47.260;2.796;2023-04-06T14:46:45;20.80;21.00
48515;DHT22;34309;47.260;2.796;2023-04-06T14:49:19;20.80;21.00
48515;DHT22;34309;47.260;2.796;2023-04-06T14:51:53;20.80;21.10
48515;DHT22;34309;47.260;2.796;2023-04-06T14:54:27;20.80;21.30
48515;DHT22;34309;47.260;2.796;2023-04-06T14:57:02;20.80;21.20
48515;DHT22;34309;47.260;2.796;2023-04-06T14:59:36;20.80;21.40
48515;DHT22;34309;47.260;2.796;2023-04-06T15:02:11;20.80;21.40
48515;DHT22;34309;47.260;2.796;2023-04-06T15:04:45;20.80;21.60
48515;DHT22;34309;47.260;2.796;2023-04-06T15:07:19;20.80;21.60
48515;DHT22;34309;47.260;2.796;2023-04-06T15:09:53;20.80;21.80
48515;DHT22;34309;47.260;2.796;2023-04-06T15:12:26;20.80;21.90
48515;DHT22;34309;47.260;2.796;2023-04-06T15:15:01;20.80;21.90
48515;DHT22;34309;47.260;2.796;2023-04-06T15:17:37;20.80;22.00
48515;DHT22;34309;47.260;2.796;2023-04-06T15:20:11;20.80;22.20
48515;DHT22;34309;47.260;2.796;2023-04-06T15:22:45;20.80;22.10
48515;DHT22;34309;47.260;2.796;2023-04-06T15:25:18;20.80;22.30
48515;DHT22;34309;47.260;2.796;2023-04-06T15:27:53;20.80;22.30
48515;DHT22;34309;47.260;2.796;2023-04-06T15:30:27;20.80;22.40
48515;DHT22;34309;47.260;2.796;2023-04-06T15:33:04;20.80;22.40
48515;DHT22;34309;47.260;2.796;2023-04-06T15:35:38;20.80;22.60
48515;DHT22;34309;47.260;2.796;2023-04-06T15:38:13;20.80;22.50
48515;DHT22;34309;47.260;2.796;2023-04-06T15:40:48;20.80;22.70
48515;DHT22;34309;47.260;2.796;2023-04-06T15:43:22;20.80;22.70
48515;DHT22;34309;47.260;2.796;2023-04-06T15:45:56;20.80;22.80
48515;DHT22;34309;47.260;2.796;2023-04-06T15:48:31;20.80;22.80
48515;DHT22;34309;47.260;2.796;2023-04-06T15:51:05;20.80;23.00
48515;DHT22;34309;47.260;2.796;2023-04-06T15:53:39;20.80;23.00
48515;DHT22;34309;47.260;2.796;2023-04-06T15:56:13;20.80;23.10
48515;DHT22;34309;47.260;2.796;2023-04-06T15:58:47;20.80;23.10
48515;DHT22;34309;47.260;2.796;2023-04-06T16:01:20;20.90;23.20
48515;DHT22;34309;47.260;2.796;2023-04-06T16:03:56;20.80;23.20
48515;DHT22;34309;47.260;2.796;2023-04-06T16:06:30;20.80;23.30
48515;DHT22;34309;47.260;2.796;2023-04-06T16:09:06;20.90;23.40
48515;DHT22;34309;47.260;2.796;2023-04-06T16:11:40;20.80;23.30
48515;DHT22;34309;47.260;2.796;2023-04-06T16:14:14;20.80;23.40